Time;durP1;ratioP1;P1;durP2;ratioP2;P2;SDS_P1;SDS_P2;PMS_P1;PMS_P2;Temp;Humidity;BMP_temperature;BMP_pressure;BME280_temperature;BME280_humidity;BME280_pressure;Samples;Min_cycle;Max_cycle;Signal;HPM_P1;HPM_P2
2023/01/22 00:01:13;;;;;;;15.65;7.43;;;3.30;92.20;;;;;;5087665;28;20347;-57
2023/01/22 00:03:39;;;;;;;20.02;8.52;;;3.40;92.20;;;;;;5104173;28;20063;-57
2023/01/22 00:06:04;;;;;;;15.07;7.32;;;3.30;92.20;;;;;;5104383;28;20115;-57
2023/01/22 00:08:30;;;;;;;13.38;8.18;;;3.30;92.20;;;;;;5104603;28;20024;-56
2023/01/22 00:10:56;;;;;;;12.77;7.65;;;3.30;92.50;;;;;;5104105;28;20036;-57
2023/01/22 00:13:22;;;;;;;16.50;7.65;;;3.30;92.20;;;;;;5104544;28;20024;-57
2023/01/22 00:15:48;;;;;;;15.63;7.40;;;3.30;92.20;;;;;;5104009;28;20396;-57
2023/01/22 00:18:13;;;;;;;18.35;7.88;;;3.30;92.20;;;;;;5105514;28;20100;-57
2023/01/22 00:20:39;;;;;;;16.98;8.35;;;3.30;92.20;;;;;;5087091;28;20028;-57
2023/01/22 00:23:05;;;;;;;13.13;7.43;;;3.30;92.20;;;;;;5104639;28;20052;-57
2023/01/22 00:25:30;;;;;;;16.20;7.50;;;3.30;92.20;;;;;;5104215;28;20071;-57
2023/01/22 00:27:56;;;;;;;14.90;7.57;;;3.30;92.20;;;;;;5105368;28;20039;-57
2023/01/22 00:30:21;;;;;;;14.38;7.47;;;3.30;92.30;;;;;;5105263;28;20024;-57
2023/01/22 00:32:47;;;;;;;15.18;7.82;;;3.30;92.20;;;;;;5104242;28;20066;-57
2023/01/22 00:35:13;;;;;;;13.05;7.32;;;3.30;92.30;;;;;;5103655;28;20024;-57
2023/01/22 00:37:38;;;;;;;13.32;7.63;;;3.30;92.30;;;;;;5105264;28;20115;-57
2023/01/22 00:40:04;;;;;;;14.27;7.85;;;3.30;92.30;;;;;;5104234;28;20512;-57
2023/01/22 00:42:30;;;;;;;15.35;7.32;;;3.30;92.30;;;;;;5103678;28;20054;-56
2023/01/22 00:44:55;;;;;;;17.60;7.47;;;3.30;92.30;;;;;;5103963;28;20050;-57
2023/01/22 00:47:21;;;;;;;14.25;7.72;;;3.30;92.30;;;;;;5086835;28;20040;-57
2023/01/22 00:49:46;;;;;;;13.25;7.90;;;3.30;92.30;;;;;;5103857;28;20043;-57
2023/01/22 00:52:12;;;;;;;14.43;7.45;;;3.30;92.30;;;;;;5105026;28;20024;-56
2023/01/22 00:54:37;;;;;;;17.33;7.90;;;3.30;92.30;;;;;;5104936;28;20377;-57
2023/01/22 00:57:03;;;;;;;13.63;7.18;;;3.30;92.30;;;;;;5105080;28;20472;-57
2023/01/22 00:59:28;;;;;;;11.52;7.10;;;3.30;92.30;;;;;;5103858;28;20467;-57
2023/01/22 01:01:54;;;;;;;13.80;7.18;;;3.30;92.30;;;;;;5103561;28;20028;-57
2023/01/22 01:04:19;;;;;;;9.85;6.65;;;3.30;92.30;;;;;;5105289;28;20058;-57
2023/01/22 01:06:45;;;;;;;11.40;7.28;;;3.30;92.30;;;;;;5104804;28;20178;-57
2023/01/22 01:09:10;;;;;;;12.73;7.28;;;3.30;92.30;;;;;;5103739;28;20139;-57
2023/01/22 01:11:36;;;;;;;12.50;7.07;;;3.20;92.30;;;;;;5086615;28;20039;-57
2023/01/22 01:14:02;;;;;;;15.27;7.88;;;3.20;92.30;;;;;;5103492;28;20039;-57
2023/01/22 01:16:28;;;;;;;14.18;7.85;;;3.20;92.30;;;;;;5103609;28;20078;-57
2023/01/22 01:19:03;;;;;;;9.68;6.65;;;3.20;92.30;;;;;;5070014;28;20028;-57
2023/01/22 01:21:28;;;;;;;13.82;7.50;;;3.20;92.20;;;;;;5103690;28;20047;-57
2023/01/22 01:23:54;;;;;;;13.60;7.30;;;3.30;92.30;;;;;;5103837;28;20040;-57
2023/01/22 01:26:20;;;;;;;10.27;6.40;;;3.20;92.30;;;;;;5103559;28;20024;-57
2023/01/22 01:28:46;;;;;;;13.18;7.22;;;3.30;92.30;;;;;;5105160;28;20115;-57
2023/01/22 01:31:13;;;;;;;14.57;7.03;;;3.20;92.30;;;;;;5104681;28;20050;-57
2023/01/22 01:33:39;;;;;;;13.43;7.03;;;3.20;92.30;;;;;;5088685;28;20425;-57
2023/01/22 01:36:12;;;;;;;10.57;7.05;;;3.30;92.30;;;;;;5107384;28;20088;-57
2023/01/22 01:38:38;;;;;;;10.60;7.38;;;3.20;92.30;;;;;;5091251;28;20030;-57
2023/01/22 01:41:04;;;;;;;10.85;6.75;;;3.20;92.30;;;;;;5090258;28;20028;-57
2023/01/22 01:43:29;;;;;;;13.80;6.78;;;3.20;92.30;;;;;;5108500;28;20140;-57
2023/01/22 01:45:56;;;;;;;8.43;6.18;;;3.20;92.30;;;;;;5107072;28;20080;-57
2023/01/22 01:48:38;;;;;;;12.32;6.75;;;3.20;92.40;;;;;;5089897;28;20056;-57
2023/01/22 01:51:24;;;;;;;9.65;6.57;;;3.20;92.40;;;;;;5090647;28;20024;-57
2023/01/22 01:53:50;;;;;;;11.25;7.20;;;3.20;92.40;;;;;;5090456;28;20035;-57
2023/01/22 01:56:27;;;;;;;13.70;7.10;;;3.20;92.70;;;;;;5089904;28;20016;-56
2023/01/22 01:58:56;;;;;;;12.18;7.38;;;3.20;92.40;;;;;;5106810;28;20028;-57
2023/01/22 02:01:21;;;;;;;10.82;6.97;;;3.20;92.40;;;;;;5107965;28;20131;-57
2023/01/22 02:03:47;;;;;;;9.25;6.10;;;3.20;92.40;;;;;;5089778;28;20038;-57
2023/01/22 02:06:14;;;;;;;12.82;7.35;;;3.20;92.40;;;;;;5089810;28;20128;-57
2023/01/22 02:08:40;;;;;;;12.95;7.22;;;3.20;92.40;;;;;;5089458;28;20036;-57
2023/01/22 02:11:06;;;;;;;7.97;6.50;;;3.20;92.40;;;;;;5106488;28;20028;-57
2023/01/22 02:13:32;;;;;;;11.73;6.75;;;3.20;92.40;;;;;;5072605;28;20039;-57
2023/01/22 02:15:58;;;;;;;10.73;6.13;;;3.20;92.40;;;;;;5089662;28;20050;-57
2023/01/22 02:18:24;;;;;;;12.43;6.55;;;3.20;92.40;;;;;;5106280;28;20028;-57
2023/01/22 02:20:57;;;;;;;12.13;6.88;;;3.20;92.40;;;;;;5089243;28;20036;-57
2023/01/22 02:23:22;;;;;;;8.50;6.82;;;3.10;92.40;;;;;;5106947;28;20039;-57
2023/01/22 02:25:48;;;;;;;10.93;6.90;;;3.20;92.40;;;;;;5089684;28;20024;-57
2023/01/22 02:28:13;;;;;;;9.00;6.68;;;3.10;92.40;;;;;;5106107;28;20028;-57
2023/01/22 02:30:40;;;;;;;10.38;7.13;;;3.10;92.40;;;;;;5107497;28;20114;-57
2023/01/22 02:33:05;;;;;;;10.32;6.32;;;3.10;92.40;;;;;;5088974;28;20016;-57
2023/01/22 02:35:31;;;;;;;10.07;6.97;;;3.20;92.40;;;;;;5089204;28;20039;-57
2023/01/22 02:37:56;;;;;;;13.40;6.95;;;3.10;92.40;;;;;;5105897;28;20028;-57
2023/01/22 02:40:22;;;;;;;12.20;7.30;;;3.20;92.40;;;;;;5106083;28;20032;-57
2023/01/22 02:42:47;;;;;;;9.98;6.35;;;3.20;92.40;;;;;;5107220;28;20050;-57
2023/01/22 02:45:13;;;;;;;9.77;6.53;;;3.10;92.60;;;;;;5087873;28;20048;-57
2023/01/22 02:47:38;;;;;;;9.73;7.10;;;3.10;92.40;;;;;;5106904;28;20108;-57
2023/01/22 02:50:04;;;;;;;12.70;7.30;;;3.20;92.40;;;;;;5107191;28;20035;-57
2023/01/22 02:52:30;;;;;;;10.40;6.50;;;3.10;92.40;;;;;;5106870;28;20504;-57
2023/01/22 02:54:56;;;;;;;10.38;6.75;;;3.20;92.40;;;;;;5088818;28;20024;-57
2023/01/22 02:57:21;;;;;;;8.90;6.35;;;3.10;92.40;;;;;;5106677;28;20070;-57
2023/01/22 02:59:47;;;;;;;10.82;6.78;;;3.10;92.40;;;;;;5105484;28;20092;-57
2023/01/22 03:02:12;;;;;;;7.47;6.00;;;3.10;92.40;;;;;;5105414;28;20051;-57
2023/01/22 03:04:38;;;;;;;10.57;6.47;;;3.10;92.40;;;;;;5088453;28;20038;-57
2023/01/22 03:07:03;;;;;;;10.98;6.38;;;3.10;92.40;;;;;;5106695;28;20058;-57
2023/01/22 03:09:29;;;;;;;7.68;5.72;;;3.10;92.40;;;;;;5105502;28;20028;-57
2023/01/22 03:11:54;;;;;;;9.68;6.70;;;3.10;92.40;;;;;;5105049;28;20039;-57
2023/01/22 03:22:33;;;;;;;9.73;6.68;;;3.10;92.40;;;;;;5106305;28;20034;-57
2023/01/22 03:25:00;;;;;;;10.45;5.95;;;3.10;92.40;;;;;;5105090;28;20088;-57
2023/01/22 03:27:26;;;;;;;8.80;6.20;;;3.30;92.40;;;;;;5088080;28;20028;-57
2023/01/22 03:29:52;;;;;;;9.23;6.10;;;3.10;92.40;;;;;;5106339;28;20032;-57
2023/01/22 03:32:17;;;;;;;9.52;6.40;;;3.10;92.40;;;;;;5106218;28;20543;-57
2023/01/22 03:34:43;;;;;;;7.63;6.15;;;3.10;92.40;;;;;;5106244;28;20028;-57
2023/01/22 03:37:11;;;;;;;9.05;6.47;;;3.10;92.40;;;;;;5087811;28;20020;-57
2023/01/22 03:39:37;;;;;;;8.63;6.07;;;3.10;92.40;;;;;;5088394;28;20111;-57
2023/01/22 03:42:02;;;;;;;8.65;6.50;;;3.10;92.40;;;;;;5105997;28;20036;-57
2023/01/22 03:44:28;;;;;;;10.18;6.60;;;3.10;92.40;;;;;;5104784;28;20400;-57
2023/01/22 03:46:53;;;;;;;7.75;6.40;;;3.10;92.40;;;;;;5105971;28;20117;-57
2023/01/22 03:49:19;;;;;;;9.60;6.43;;;3.10;92.50;;;;;;5104630;28;20192;-57
2023/01/22 03:51:44;;;;;;;8.15;6.57;;;3.10;92.50;;;;;;5105739;28;20046;-57
2023/01/22 03:54:11;;;;;;;9.65;7.53;;;3.10;92.40;;;;;;5105799;28;20021;-57
2023/01/22 03:56:36;;;;;;;7.85;6.18;;;3.10;92.40;;;;;;5104217;28;20035;-57
2023/01/22 03:59:02;;;;;;;8.48;6.30;;;3.10;92.30;;;;;;5105706;28;20369;-57
2023/01/22 04:01:27;;;;;;;7.72;6.03;;;3.10;92.30;;;;;;5104154;28;20028;-57
2023/01/22 04:03:53;;;;;;;7.80;6.25;;;3.10;92.40;;;;;;5104375;28;20047;-57
2023/01/22 04:06:19;;;;;;;6.90;5.80;;;3.10;92.40;;;;;;5104396;28;20031;-57
2023/01/22 04:08:45;;;;;;;10.52;6.47;;;3.10;92.40;;;;;;5105997;28;20028;-57
2023/01/22 04:11:11;;;;;;;9.13;6.70;;;3.10;92.40;;;;;;5105888;28;20059;-57
2023/01/22 04:13:37;;;;;;;8.52;6.43;;;3.10;92.40;;;;;;5104104;28;20397;-57
2023/01/22 04:16:03;;;;;;;9.25;6.07;;;3.10;92.40;;;;;;5104172;28;20050;-57
2023/01/22 04:18:28;;;;;;;9.95;6.57;;;3.10;92.40;;;;;;5087119;28;20063;-57
2023/01/22 04:20:54;;;;;;;8.20;6.30;;;3.10;92.40;;;;;;5070361;28;20057;-57
2023/01/22 04:23:20;;;;;;;7.78;6.20;;;3.10;92.40;;;;;;5104198;28;20132;-57
2023/01/22 04:25:46;;;;;;;10.52;6.68;;;3.10;92.40;;;;;;5104085;28;20054;-57
2023/01/22 04:28:13;;;;;;;8.43;6.50;;;3.10;92.40;;;;;;5104189;28;20020;-57
2023/01/22 04:30:39;;;;;;;8.52;6.28;;;3.10;92.40;;;;;;5103894;28;20048;-57
2023/01/22 04:33:04;;;;;;;10.57;5.90;;;3.10;92.40;;;;;;5103852;28;20039;-57
2023/01/22 04:35:30;;;;;;;10.60;6.53;;;3.10;92.40;;;;;;5104093;28;20028;-57
2023/01/22 04:37:56;;;;;;;7.47;5.93;;;3.10;92.40;;;;;;5103964;28;20020;-57
2023/01/22 04:40:21;;;;;;;8.25;6.38;;;3.10;92.40;;;;;;5105207;28;20139;-57
2023/01/22 04:42:47;;;;;;;8.40;6.30;;;3.10;92.40;;;;;;5103769;28;20052;-57
2023/01/22 04:45:12;;;;;;;6.35;5.68;;;3.10;92.40;;;;;;5103779;28;20025;-57
2023/01/22 04:47:42;;;;;;;8.45;6.28;;;3.00;92.40;;;;;;5086906;28;20050;-57
2023/01/22 04:50:11;;;;;;;10.35;5.82;;;3.00;92.40;;;;;;5103695;28;20048;-57
2023/01/22 04:52:36;;;;;;;8.20;6.70;;;3.10;92.50;;;;;;5087342;28;20043;-57
2023/01/22 04:55:02;;;;;;;9.45;6.25;;;3.00;92.40;;;;;;5105119;28;20028;-57
2023/01/22 04:57:27;;;;;;;7.90;6.30;;;3.10;92.40;;;;;;5103372;28;20030;-57
2023/01/22 04:59:53;;;;;;;8.82;6.60;;;3.10;92.40;;;;;;5105177;28;20035;-57
2023/01/22 05:02:18;;;;;;;7.57;5.97;;;3.10;92.40;;;;;;5104943;28;20032;-57
2023/01/22 05:04:44;;;;;;;8.68;6.07;;;3.00;92.40;;;;;;5103669;28;20024;-57
2023/01/22 05:07:10;;;;;;;7.63;6.15;;;3.00;92.40;;;;;;5103740;28;20114;-57
2023/01/22 05:09:35;;;;;;;8.77;6.40;;;3.00;92.40;;;;;;5108184;28;20040;-57
2023/01/22 05:12:01;;;;;;;7.93;6.25;;;3.10;92.40;;;;;;5108727;28;20032;-57
2023/01/22 05:14:26;;;;;;;7.63;6.45;;;3.10;92.40;;;;;;5109018;28;20058;-57
2023/01/22 05:16:52;;;;;;;7.13;5.78;;;3.10;92.40;;;;;;5108627;28;20123;-57
2023/01/22 05:19:17;;;;;;;6.72;5.97;;;3.00;92.40;;;;;;5107728;28;20039;-57
2023/01/22 05:21:43;;;;;;;7.38;6.20;;;3.00;92.40;;;;;;5108493;28;20024;-57
2023/01/22 05:24:08;;;;;;;8.05;5.78;;;3.00;92.40;;;;;;5107212;28;20028;-57
2023/01/22 05:26:34;;;;;;;10.18;6.32;;;3.00;92.40;;;;;;5107382;28;20091;-57
2023/01/22 05:29:00;;;;;;;9.32;6.15;;;3.10;92.50;;;;;;5108245;28;20047;-57
2023/01/22 05:31:25;;;;;;;6.90;5.60;;;3.00;92.50;;;;;;5108625;28;20026;-57
2023/01/22 05:33:51;;;;;;;8.43;6.32;;;3.00;92.60;;;;;;5107054;28;20072;-57
2023/01/22 05:36:16;;;;;;;7.38;5.68;;;3.10;92.60;;;;;;5108341;28;20052;-57
2023/01/22 05:38:42;;;;;;;9.35;5.70;;;3.10;92.60;;;;;;5108631;28;20016;-57
2023/01/22 05:41:07;;;;;;;7.75;6.45;;;3.10;92.70;;;;;;5073029;28;20028;-57
2023/01/22 05:43:35;;;;;;;7.97;6.50;;;3.10;92.80;;;;;;5106970;28;20024;-57
2023/01/22 05:46:01;;;;;;;7.75;5.93;;;3.10;92.80;;;;;;5108518;28;20040;-57
2023/01/22 05:48:27;;;;;;;8.05;6.18;;;3.10;92.90;;;;;;5107912;28;20099;-57
2023/01/22 05:50:52;;;;;;;7.15;5.88;;;3.10;92.90;;;;;;5108376;28;20039;-57
2023/01/22 05:53:18;;;;;;;10.02;6.32;;;3.20;92.90;;;;;;5106593;28;20035;-57
2023/01/22 05:55:43;;;;;;;8.77;5.97;;;3.20;92.90;;;;;;5106800;28;20020;-57
2023/01/22 05:58:09;;;;;;;9.90;5.88;;;3.20;92.90;;;;;;5106734;28;20065;-57
2023/01/22 06:00:34;;;;;;;6.50;5.65;;;3.20;92.90;;;;;;5107896;28;20039;-57
2023/01/22 06:03:00;;;;;;;8.13;5.90;;;3.20;92.90;;;;;;5106757;28;20384;-56
2023/01/22 06:05:26;;;;;;;8.18;5.90;;;3.20;92.90;;;;;;5089500;28;20028;-57
2023/01/22 06:07:52;;;;;;;6.55;5.57;;;3.20;92.90;;;;;;5072754;28;20032;-57
2023/01/22 06:10:17;;;;;;;7.65;5.75;;;3.20;92.90;;;;;;5107835;28;20048;-57
2023/01/22 06:12:43;;;;;;;7.63;5.95;;;3.20;92.90;;;;;;5107588;28;20032;-57
2023/01/22 06:15:09;;;;;;;7.80;6.07;;;3.20;92.90;;;;;;5107872;28;20087;-57
2023/01/22 06:17:34;;;;;;;8.25;5.45;;;3.20;92.90;;;;;;5106113;28;20030;-57
2023/01/22 06:20:00;;;;;;;7.60;5.90;;;3.30;93.00;;;;;;5107291;28;20424;-57
2023/01/22 06:22:25;;;;;;;8.73;5.97;;;3.30;93.00;;;;;;5106298;28;20032;-57
2023/01/22 06:24:51;;;;;;;9.45;6.57;;;3.30;93.10;;;;;;5106223;28;20028;-57
2023/01/22 06:27:17;;;;;;;8.55;6.32;;;3.30;93.20;;;;;;5106015;28;20040;-57
2023/01/22 06:29:42;;;;;;;9.10;6.40;;;3.30;93.30;;;;;;5106323;28;20036;-57
2023/01/22 06:32:08;;;;;;;16.75;6.88;;;3.30;93.30;;;;;;5088860;28;20028;-57
2023/01/22 06:34:34;;;;;;;8.35;6.28;;;3.30;93.40;;;;;;5089407;28;20107;-57
2023/01/22 06:36:59;;;;;;;8.18;6.18;;;3.30;93.50;;;;;;5089136;28;20425;-57
2023/01/22 06:39:25;;;;;;;8.48;6.35;;;3.30;93.50;;;;;;5105983;28;20396;-57
2023/01/22 06:41:50;;;;;;;8.57;6.03;;;3.30;93.50;;;;;;5105838;28;20091;-57
2023/01/22 06:44:17;;;;;;;9.93;6.57;;;3.30;93.30;;;;;;5106809;28;20040;-57
2023/01/22 06:46:44;;;;;;;8.57;6.55;;;3.30;93.30;;;;;;5107231;28;20054;-57
2023/01/22 06:49:10;;;;;;;8.43;6.38;;;3.30;93.10;;;;;;5105591;28;20032;-57
2023/01/22 06:51:35;;;;;;;9.60;6.35;;;3.30;93.10;;;;;;5105398;28;20302;-56
2023/01/22 06:54:01;;;;;;;7.35;6.05;;;3.40;93.20;;;;;;5107201;28;20039;-56
2023/01/22 06:56:27;;;;;;;8.68;6.55;;;3.30;93.10;;;;;;5106843;28;20188;-57
2023/01/22 06:58:52;;;;;;;8.65;6.65;;;3.30;93.10;;;;;;5105476;28;20046;-57
2023/01/22 07:01:18;;;;;;;9.25;6.50;;;3.30;93.00;;;;;;5105801;28;20051;-57
2023/01/22 07:03:44;;;;;;;9.32;6.07;;;3.30;93.00;;;;;;5088337;28;20039;-57
2023/01/22 07:06:10;;;;;;;10.23;6.25;;;3.30;92.90;;;;;;5105686;28;20030;-57
2023/01/22 07:08:36;;;;;;;9.30;6.85;;;3.30;92.90;;;;;;5105422;28;20032;-57
2023/01/22 07:11:01;;;;;;;7.82;6.25;;;3.30;92.90;;;;;;5106488;28;20025;-57
2023/01/22 07:13:27;;;;;;;7.72;6.57;;;3.30;92.90;;;;;;5105375;28;20063;-57
2023/01/22 07:15:52;;;;;;;10.00;6.53;;;3.30;92.90;;;;;;5088251;28;20080;-57
2023/01/22 07:18:18;;;;;;;12.35;6.22;;;3.30;92.90;;;;;;5088577;28;20024;-57
2023/01/22 07:20:44;;;;;;;8.48;6.57;;;3.30;92.90;;;;;;5106416;28;20368;-57
2023/01/22 07:23:10;;;;;;;8.35;6.43;;;3.30;93.10;;;;;;5088145;28;20031;-57
2023/01/22 07:25:35;;;;;;;7.15;6.40;;;3.30;92.80;;;;;;5105301;28;20499;-57
2023/01/22 07:28:01;;;;;;;10.60;6.88;;;3.30;92.90;;;;;;5088071;28;20028;-57
2023/01/22 07:30:27;;;;;;;8.60;6.53;;;3.30;92.90;;;;;;5104395;28;20028;-57
2023/01/22 07:32:53;;;;;;;8.13;6.97;;;3.30;92.90;;;;;;5088160;28;20028;-57
2023/01/22 07:35:18;;;;;;;8.48;6.53;;;3.30;92.90;;;;;;5104481;28;20020;-57
2023/01/22 07:37:51;;;;;;;8.18;7.03;;;3.40;92.90;;;;;;5104774;28;20058;-57
2023/01/22 07:40:17;;;;;;;9.48;6.85;;;3.30;92.80;;;;;;5088165;28;20028;-57
2023/01/22 07:42:42;;;;;;;7.40;5.97;;;3.40;92.90;;;;;;5105394;28;20058;-57
2023/01/22 07:45:08;;;;;;;8.80;6.72;;;3.30;92.90;;;;;;5088400;28;20046;-57
2023/01/22 07:47:34;;;;;;;12.07;7.20;;;3.30;92.90;;;;;;5105751;28;20040;-57
2023/01/22 07:49:59;;;;;;;11.77;7.47;;;3.30;92.90;;;;;;5106286;28;20036;-57
2023/01/22 07:52:25;;;;;;;8.75;7.47;;;3.30;92.90;;;;;;5104707;28;20036;-57
2023/01/22 07:54:50;;;;;;;8.88;7.10;;;3.40;92.90;;;;;;5105584;28;20079;-57
2023/01/22 07:57:17;;;;;;;9.40;7.63;;;3.40;92.90;;;;;;5105958;28;20135;-57
2023/01/22 07:59:43;;;;;;;8.63;7.25;;;3.40;92.90;;;;;;5105800;28;20031;-57
2023/01/22 08:02:14;;;;;;;8.70;7.25;;;3.40;92.90;;;;;;5105753;28;20024;-57
2023/01/22 08:04:40;;;;;;;18.20;7.65;;;3.40;92.90;;;;;;5104667;28;20073;-57
2023/01/22 08:07:10;;;;;;;10.30;7.70;;;3.40;92.90;;;;;;5104384;28;20156;-56
2023/01/22 08:09:36;;;;;;;14.43;7.70;;;3.40;92.90;;;;;;5104410;28;20024;-57
2023/01/22 08:12:02;;;;;;;22.33;8.38;;;3.40;92.90;;;;;;5104049;28;20088;-57
2023/01/22 08:14:28;;;;;;;22.00;8.27;;;3.40;93.00;;;;;;5105429;28;20031;-57
2023/01/22 08:16:53;;;;;;;17.77;7.88;;;3.40;93.10;;;;;;5105584;28;20024;-57
2023/01/22 08:19:19;;;;;;;18.98;8.70;;;3.40;93.20;;;;;;5103925;28;20032;-57
2023/01/22 08:21:44;;;;;;;17.38;7.97;;;3.40;93.10;;;;;;5105486;28;20028;-57
2023/01/22 08:24:11;;;;;;;28.08;9.85;;;3.40;93.10;;;;;;5104163;28;20032;-57
2023/01/22 08:26:38;;;;;;;27.40;8.75;;;3.40;93.10;;;;;;5103611;28;20361;-56
2023/01/22 08:29:03;;;;;;;32.97;10.50;;;3.40;93.10;;;;;;5104099;28;20033;-57
2023/01/22 08:31:29;;;;;;;27.98;9.38;;;3.40;93.20;;;;;;5103860;28;20024;-57
2023/01/22 08:33:56;;;;;;;31.08;9.13;;;3.50;93.40;;;;;;5105352;28;20051;-57
2023/01/22 08:36:22;;;;;;;24.35;9.18;;;3.50;93.30;;;;;;5087565;28;20085;-57
2023/01/22 08:38:47;;;;;;;17.00;8.50;;;3.40;93.20;;;;;;5105251;28;20032;-57
2023/01/22 08:41:14;;;;;;;22.27;10.18;;;3.50;93.30;;;;;;5104061;28;20074;-57
2023/01/22 08:43:40;;;;;;;28.23;9.68;;;3.50;93.30;;;;;;5107116;28;20040;-57
2023/01/22 08:46:05;;;;;;;16.88;9.38;;;3.50;93.40;;;;;;5108066;28;20065;-57
2023/01/22 08:48:31;;;;;;;18.70;9.50;;;3.50;93.40;;;;;;5109280;28;20059;-57
2023/01/22 08:50:59;;;;;;;19.25;8.73;;;3.50;93.50;;;;;;5107787;28;20038;-57
2023/01/22 08:53:25;;;;;;;18.55;9.18;;;3.50;93.50;;;;;;5074539;28;20034;-57
2023/01/22 08:55:50;;;;;;;25.70;9.15;;;3.50;93.50;;;;;;5091174;28;20017;-57
2023/01/22 08:58:16;;;;;;;18.25;8.88;;;3.50;93.50;;;;;;5107839;28;20052;-57
2023/01/22 09:00:43;;;;;;;21.42;9.18;;;3.50;93.50;;;;;;5109399;28;20471;-57
2023/01/22 09:03:08;;;;;;;18.23;9.65;;;3.50;93.50;;;;;;5090970;28;20126;-57
2023/01/22 09:05:36;;;;;;;16.13;9.25;;;3.50;93.40;;;;;;5091023;28;20123;-57
2023/01/22 09:08:02;;;;;;;17.10;9.30;;;3.50;93.40;;;;;;5091449;28;20024;-57
2023/01/22 09:10:28;;;;;;;20.38;9.40;;;3.50;93.40;;;;;;5107442;28;20169;-57
2023/01/22 09:12:53;;;;;;;12.10;8.95;;;3.50;93.40;;;;;;5107384;28;20032;-57
2023/01/22 09:15:19;;;;;;;16.05;8.80;;;3.50;93.70;;;;;;5073388;28;20032;-56
2023/01/22 09:17:44;;;;;;;21.75;10.48;;;3.50;93.40;;;;;;5107181;28;20016;-57
2023/01/22 09:20:10;;;;;;;13.23;9.20;;;3.40;93.40;;;;;;5108550;28;20024;-57
2023/01/22 09:22:35;;;;;;;14.93;8.77;;;3.50;93.50;;;;;;5108775;28;20107;-57
2023/01/22 09:25:01;;;;;;;12.35;8.63;;;3.50;93.50;;;;;;5107382;28;20074;-57
2023/01/22 09:27:26;;;;;;;15.38;9.73;;;3.50;93.50;;;;;;5107179;28;20102;-57
2023/01/22 09:29:52;;;;;;;13.25;9.60;;;3.50;93.40;;;;;;5108224;28;20024;-57
2023/01/22 09:32:18;;;;;;;21.65;9.77;;;3.50;93.40;;;;;;5089840;28;20218;-57
2023/01/22 09:34:43;;;;;;;14.05;9.85;;;3.50;93.40;;;;;;5107253;28;20028;-57
2023/01/22 09:37:10;;;;;;;15.23;8.95;;;3.50;93.30;;;;;;5108012;28;20081;-57
2023/01/22 09:39:35;;;;;;;13.38;9.18;;;3.50;93.30;;;;;;5108255;28;20080;-57
2023/01/22 09:42:01;;;;;;;19.58;11.02;;;3.50;93.30;;;;;;5106863;28;20039;-57
2023/01/22 09:44:30;;;;;;;19.77;9.55;;;3.50;93.30;;;;;;5089935;28;20063;-57
2023/01/22 09:47:00;;;;;;;18.60;9.60;;;3.50;93.30;;;;;;5108456;28;20059;-57
2023/01/22 09:49:47;;;;;;;23.77;9.98;;;3.50;93.30;;;;;;5090466;28;20032;-57
2023/01/22 09:52:13;;;;;;;23.33;9.85;;;3.50;93.30;;;;;;5090176;28;20173;-57
2023/01/22 09:54:38;;;;;;;23.17;10.93;;;3.50;93.40;;;;;;5107295;28;20023;-57
2023/01/22 09:57:05;;;;;;;24.23;10.45;;;3.50;93.30;;;;;;5089543;28;20016;-57
2023/01/22 09:59:47;;;;;;;28.73;10.18;;;3.50;93.30;;;;;;5089260;28;20021;-57
2023/01/22 10:02:52;;;;;;;20.30;10.02;;;3.50;93.40;;;;;;5090081;28;20051;-57
2023/01/22 10:05:41;;;;;;;20.25;10.32;;;3.60;93.30;;;;;;5067138;28;20092;-57
2023/01/22 10:08:16;;;;;;;44.42;12.20;;;3.60;93.40;;;;;;5106327;28;20032;-57
2023/01/22 10:10:42;;;;;;;28.88;10.80;;;3.60;93.80;;;;;;5089501;28;20385;-57
2023/01/22 10:13:19;;;;;;;53.63;13.73;;;3.60;93.50;;;;;;5107033;28;20028;-57
2023/01/22 10:15:46;;;;;;;46.10;12.55;;;3.60;93.60;;;;;;5107500;28;20025;-57
2023/01/22 10:18:23;;;;;;;44.00;13.38;;;3.60;93.70;;;;;;5084213;28;20059;-57
2023/01/22 10:20:49;;;;;;;40.92;12.82;;;3.70;93.80;;;;;;5106078;28;20062;-57
2023/01/22 10:23:19;;;;;;;53.10;13.55;;;3.70;93.80;;;;;;5107209;28;20028;-57
2023/01/22 10:25:45;;;;;;;40.30;12.75;;;3.70;93.70;;;;;;5106444;28;20036;-57
2023/01/22 10:28:11;;;;;;;39.17;13.32;;;3.70;93.70;;;;;;5105867;28;20056;-57
2023/01/22 10:30:46;;;;;;;103.53;17.50;;;3.70;93.70;;;;;;5095866;28;20448;-56
2023/01/22 10:33:15;;;;;;;63.30;15.80;;;3.80;93.70;;;;;;5102572;28;20024;-57
2023/01/22 10:35:42;;;;;;;54.28;13.65;;;3.80;93.70;;;;;;5085550;28;20036;-57
2023/01/22 10:38:23;;;;;;;62.67;15.02;;;3.80;93.70;;;;;;5100513;28;20035;-57
2023/01/22 10:40:53;;;;;;;57.45;13.93;;;3.80;93.70;;;;;;5101335;28;20036;-57
2023/01/22 10:43:19;;;;;;;88.18;17.52;;;3.80;93.70;;;;;;5101381;28;20234;-57
2023/01/22 10:45:58;;;;;;;62.22;14.32;;;3.80;93.70;;;;;;5103199;28;20044;-57
2023/01/22 10:48:23;;;;;;;77.25;15.90;;;3.90;93.80;;;;;;5104797;28;20039;-56
2023/01/22 10:51:19;;;;;;;61.00;14.82;;;3.90;93.80;;;;;;5106368;28;20031;-57
2023/01/22 10:53:47;;;;;;;56.97;15.93;;;3.90;93.80;;;;;;5088274;28;20051;-57
2023/01/22 10:56:29;;;;;;;84.63;18.02;;;3.90;93.80;;;;;;5104112;28;20043;-57
2023/01/22 10:58:55;;;;;;;86.03;16.55;;;4.00;93.80;;;;;;5104690;28;20119;-57
2023/01/22 11:01:39;;;;;;;68.90;15.77;;;3.90;93.90;;;;;;5104764;28;20048;-57
2023/01/22 11:04:12;;;;;;;60.60;14.73;;;3.90;93.80;;;;;;5099594;28;20032;-57
2023/01/22 11:06:44;;;;;;;93.78;17.10;;;4.00;93.90;;;;;;5083211;28;20106;-57
2023/01/22 11:09:30;;;;;;;84.47;16.48;;;3.90;93.90;;;;;;5101433;28;20129;-57
2023/01/22 11:12:20;;;;;;;82.82;17.52;;;4.00;94.00;;;;;;5099825;28;20051;-57
2023/01/22 11:14:46;;;;;;;98.95;18.45;;;4.00;94.10;;;;;;5073636;28;20036;-57
2023/01/22 11:17:37;;;;;;;79.38;16.40;;;4.00;94.00;;;;;;5101053;28;20025;-57
2023/01/22 11:20:22;;;;;;;117.28;20.40;;;4.00;93.90;;;;;;5084222;28;20460;-57
2023/01/22 11:23:09;;;;;;;92.38;19.05;;;4.00;93.80;;;;;;5098773;28;20166;-57
2023/01/22 11:26:14;;;;;;;87.70;17.17;;;4.00;93.80;;;;;;5084092;28;20035;-57
2023/01/22 11:28:40;;;;;;;107.25;18.70;;;4.00;93.70;;;;;;5077417;28;20048;-57
2023/01/22 11:31:16;;;;;;;128.48;21.73;;;4.00;93.70;;;;;;5087884;28;20040;-57
2023/01/22 11:34:07;;;;;;;85.78;18.60;;;4.00;93.80;;;;;;5104063;28;20048;-57
2023/01/22 11:36:46;;;;;;;114.97;18.98;;;4.00;93.80;;;;;;5092490;28;20024;-57
2023/01/22 11:39:41;;;;;;;92.20;16.83;;;4.00;93.90;;;;;;5104668;28;20029;-57
2023/01/22 11:42:22;;;;;;;111.95;19.70;;;4.10;93.90;;;;;;5093785;28;20119;-57
2023/01/22 11:45:24;;;;;;;87.45;17.83;;;4.00;93.80;;;;;;5083332;28;20044;-57
2023/01/22 11:48:13;;;;;;;104.43;18.23;;;4.10;93.80;;;;;;5095028;28;20043;-56
2023/01/22 11:50:43;;;;;;;90.55;17.35;;;4.10;93.80;;;;;;5103844;28;20032;-57
2023/01/22 11:53:24;;;;;;;106.57;17.92;;;4.10;93.80;;;;;;5103435;28;20051;-57
2023/01/22 11:56:10;;;;;;;84.07;16.75;;;4.10;93.90;;;;;;5085055;28;20507;-57
2023/01/22 11:58:51;;;;;;;89.50;17.95;;;4.10;93.80;;;;;;5099815;28;20051;-57
2023/01/22 12:01:58;;;;;;;99.20;18.52;;;4.20;93.80;;;;;;5103622;28;20028;-57
2023/01/22 12:04:35;;;;;;;130.73;19.67;;;4.20;93.80;;;;;;5103165;28;20106;-57
2023/01/22 12:07:34;;;;;;;109.68;19.33;;;4.20;93.90;;;;;;5102881;28;20032;-57
2023/01/22 12:10:36;;;;;;;98.07;20.77;;;4.30;93.90;;;;;;5104696;28;20039;-57
2023/01/22 12:13:07;;;;;;;128.30;20.30;;;4.20;93.80;;;;;;5103645;28;20051;-57
2023/01/22 12:16:05;;;;;;;105.05;18.58;;;4.30;93.80;;;;;;5104560;28;20123;-57
2023/01/22 12:18:46;;;;;;;115.55;19.95;;;4.30;93.90;;;;;;5102355;28;20027;-57
2023/01/22 12:21:26;;;;;;;154.48;20.23;;;4.30;94.20;;;;;;5103257;28;20028;-57
2023/01/22 12:24:09;;;;;;;122.70;19.95;;;4.40;94.10;;;;;;5104753;28;20044;-56
2023/01/22 12:26:40;;;;;;;124.45;20.77;;;4.40;94.20;;;;;;5103247;28;20123;-57
2023/01/22 12:29:16;;;;;;;183.88;25.90;;;4.40;94.10;;;;;;5103137;28;20056;-57
2023/01/22 12:31:55;;;;;;;156.85;22.63;;;4.40;94.00;;;;;;5102851;28;20043;-57
2023/01/22 12:34:24;;;;;;;150.85;20.98;;;4.50;93.90;;;;;;5103012;28;20046;-56
2023/01/22 12:36:50;;;;;;;130.32;20.67;;;4.50;93.90;;;;;;5102569;28;20039;-57
2023/01/22 12:39:27;;;;;;;116.35;18.98;;;4.50;93.70;;;;;;5100225;28;20052;-57
2023/01/22 12:42:12;;;;;;;136.05;21.65;;;4.60;93.80;;;;;;5102223;28;20027;-57
2023/01/22 12:45:00;;;;;;;117.55;19.92;;;4.50;93.90;;;;;;5095335;28;20051;-57
2023/01/22 12:48:03;;;;;;;119.75;20.13;;;4.60;93.80;;;;;;5083778;28;20036;-57
2023/01/22 12:50:29;;;;;;;134.65;21.55;;;4.60;93.70;;;;;;5037877;28;20057;-57
2023/01/22 12:53:01;;;;;;;129.57;20.40;;;4.60;93.70;;;;;;5073275;28;20051;-57
2023/01/22 12:55:34;;;;;;;142.68;22.00;;;4.60;93.70;;;;;;5085436;28;20074;-57
2023/01/22 12:57:59;;;;;;;122.25;20.70;;;4.60;93.80;;;;;;5101372;28;20016;-57
2023/01/22 13:00:33;;;;;;;116.65;19.88;;;4.60;93.80;;;;;;5103527;28;20036;-57
2023/01/22 13:03:00;;;;;;;136.05;20.75;;;4.60;93.90;;;;;;5102967;28;20027;-57
2023/01/22 13:05:29;;;;;;;134.55;21.10;;;4.60;93.90;;;;;;5104200;28;20024;-57